sensor_id;sensor_type;location;lat;lon;timestamp;P1;durP1;ratioP1;P2;durP2;ratioP2
76852;SDS011;65825;52.232;10.566;2023-12-14T00:01:33;9.47;;;4.80;;
76852;SDS011;65825;52.232;10.566;2023-12-14T00:03:58;7.80;;;4.63;;
76852;SDS011;65825;52.232;10.566;2023-12-14T00:06:23;7.67;;;4.17;;
76852;SDS011;65825;52.232;10.566;2023-12-14T00:08:49;10.57;;;5.23;;
76852;SDS011;65825;52.232;10.566;2023-12-14T00:11:14;10.83;;;4.67;;
76852;SDS011;65825;52.232;10.566;2023-12-14T00:13:39;9.20;;;4.80;;
76852;SDS011;65825;52.232;10.566;2023-12-14T00:16:05;10.05;;;5.13;;
76852;SDS011;65825;52.232;10.566;2023-12-14T00:18:31;8.15;;;4.47;;
76852;SDS011;65825;52.232;10.566;2023-12-14T00:20:56;9.17;;;4.40;;
76852;SDS011;65825;52.232;10.566;2023-12-14T00:23:22;8.83;;;5.10;;
76852;SDS011;65825;52.232;10.566;2023-12-14T00:25:47;11.00;;;4.97;;
76852;SDS011;65825;52.232;10.566;2023-12-14T00:28:13;8.93;;;4.93;;
76852;SDS011;65825;52.232;10.566;2023-12-14T00:30:38;9.40;;;4.90;;
76852;SDS011;65825;52.232;10.566;2023-12-14T00:33:04;10.95;;;5.47;;
76852;SDS011;65825;52.232;10.566;2023-12-14T00:35:29;12.20;;;4.70;;
76852;SDS011;65825;52.232;10.566;2023-12-14T00:37:54;9.07;;;4.37;;
76852;SDS011;65825;52.232;10.566;2023-12-14T00:40:20;11.47;;;4.97;;
76852;SDS011;65825;52.232;10.566;2023-12-14T00:42:45;9.70;;;4.53;;
76852;SDS011;65825;52.232;10.566;2023-12-14T00:45:11;14.07;;;5.25;;
76852;SDS011;65825;52.232;10.566;2023-12-14T00:47:36;11.90;;;4.90;;
76852;SDS011;65825;52.232;10.566;2023-12-14T00:50:02;11.93;;;5.30;;
76852;SDS011;65825;52.232;10.566;2023-12-14T00:52:27;15.20;;;5.72;;
76852;SDS011;65825;52.232;10.566;2023-12-14T00:54:52;15.30;;;6.03;;
76852;SDS011;65825;52.232;10.566;2023-12-14T00:57:17;12.13;;;5.47;;
76852;SDS011;65825;52.232;10.566;2023-12-14T00:59:43;12.20;;;5.83;;
76852;SDS011;65825;52.232;10.566;2023-12-14T01:02:08;13.23;;;5.72;;
76852;SDS011;65825;52.232;10.566;2023-12-14T01:04:33;13.00;;;5.17;;
76852;SDS011;65825;52.232;10.566;2023-12-14T01:06:59;14.03;;;6.43;;
76852;SDS011;65825;52.232;10.566;2023-12-14T01:09:24;12.63;;;5.30;;
76852;SDS011;65825;52.232;10.566;2023-12-14T01:11:49;12.20;;;5.30;;
76852;SDS011;65825;52.232;10.566;2023-12-14T01:14:15;10.80;;;4.90;;
76852;SDS011;65825;52.232;10.566;2023-12-14T01:16:40;12.30;;;5.50;;
76852;SDS011;65825;52.232;10.566;2023-12-14T01:19:05;13.13;;;5.30;;
76852;SDS011;65825;52.232;10.566;2023-12-14T01:21:31;10.53;;;5.13;;
76852;SDS011;65825;52.232;10.566;2023-12-14T01:23:57;11.57;;;5.10;;
76852;SDS011;65825;52.232;10.566;2023-12-14T01:26:22;8.23;;;4.60;;
76852;SDS011;65825;52.232;10.566;2023-12-14T01:28:47;11.07;;;4.37;;
76852;SDS011;65825;52.232;10.566;2023-12-14T01:31:12;8.27;;;4.87;;
76852;SDS011;65825;52.232;10.566;2023-12-14T01:33:38;9.63;;;4.90;;
76852;SDS011;65825;52.232;10.566;2023-12-14T01:36:03;11.70;;;5.27;;
76852;SDS011;65825;52.232;10.566;2023-12-14T01:38:28;9.95;;;5.15;;
76852;SDS011;65825;52.232;10.566;2023-12-14T01:40:54;9.97;;;5.43;;
76852;SDS011;65825;52.232;10.566;2023-12-14T01:43:21;9.57;;;4.95;;
76852;SDS011;65825;52.232;10.566;2023-12-14T01:45:46;12.55;;;5.03;;
76852;SDS011;65825;52.232;10.566;2023-12-14T01:48:11;11.73;;;5.17;;
76852;SDS011;65825;52.232;10.566;2023-12-14T01:50:37;12.10;;;5.77;;
76852;SDS011;65825;52.232;10.566;2023-12-14T01:53:02;8.77;;;4.93;;
76852;SDS011;65825;52.232;10.566;2023-12-14T01:55:27;10.40;;;5.00;;
76852;SDS011;65825;52.232;10.566;2023-12-14T01:57:53;8.67;;;4.63;;
76852;SDS011;65825;52.232;10.566;2023-12-14T02:00:34;10.77;;;5.27;;
76852;SDS011;65825;52.232;10.566;2023-12-14T02:03:04;9.07;;;4.85;;
76852;SDS011;65825;52.232;10.566;2023-12-14T02:05:29;7.63;;;4.75;;
76852;SDS011;65825;52.232;10.566;2023-12-14T02:07:54;10.83;;;5.90;;
76852;SDS011;65825;52.232;10.566;2023-12-14T02:10:20;13.30;;;5.50;;
76852;SDS011;65825;52.232;10.566;2023-12-14T02:12:45;11.37;;;5.13;;
76852;SDS011;65825;52.232;10.566;2023-12-14T02:15:11;12.67;;;5.70;;
76852;SDS011;65825;52.232;10.566;2023-12-14T02:17:36;8.93;;;5.07;;
76852;SDS011;65825;52.232;10.566;2023-12-14T02:20:01;8.57;;;4.67;;
76852;SDS011;65825;52.232;10.566;2023-12-14T02:22:27;10.18;;;4.78;;
76852;SDS011;65825;52.232;10.566;2023-12-14T02:24:52;8.47;;;4.67;;
76852;SDS011;65825;52.232;10.566;2023-12-14T02:27:17;9.60;;;4.50;;
76852;SDS011;65825;52.232;10.566;2023-12-14T02:29:42;9.33;;;4.80;;
76852;SDS011;65825;52.232;10.566;2023-12-14T02:32:08;8.07;;;4.27;;
76852;SDS011;65825;52.232;10.566;2023-12-14T02:34:33;9.00;;;4.90;;
76852;SDS011;65825;52.232;10.566;2023-12-14T02:36:58;8.47;;;4.07;;
76852;SDS011;65825;52.232;10.566;2023-12-14T02:39:23;7.73;;;4.37;;
76852;SDS011;65825;52.232;10.566;2023-12-14T02:41:49;9.40;;;4.00;;
76852;SDS011;65825;52.232;10.566;2023-12-14T02:44:14;8.30;;;4.03;;
76852;SDS011;65825;52.232;10.566;2023-12-14T02:46:39;8.57;;;3.93;;
76852;SDS011;65825;52.232;10.566;2023-12-14T02:49:04;8.60;;;4.23;;
76852;SDS011;65825;52.232;10.566;2023-12-14T02:51:30;6.47;;;3.87;;
76852;SDS011;65825;52.232;10.566;2023-12-14T02:53:55;6.73;;;3.80;;
76852;SDS011;65825;52.232;10.566;2023-12-14T02:56:22;8.05;;;4.90;;
76852;SDS011;65825;52.232;10.566;2023-12-14T02:58:47;8.05;;;3.63;;
76852;SDS011;65825;52.232;10.566;2023-12-14T03:01:17;11.18;;;4.20;;
76852;SDS011;65825;52.232;10.566;2023-12-14T03:03:44;7.97;;;3.75;;
76852;SDS011;65825;52.232;10.566;2023-12-14T03:06:09;8.70;;;4.40;;
76852;SDS011;65825;52.232;10.566;2023-12-14T03:08:34;6.33;;;3.77;;
76852;SDS011;65825;52.232;10.566;2023-12-14T03:10:59;7.20;;;4.07;;
76852;SDS011;65825;52.232;10.566;2023-12-14T03:13:25;9.48;;;4.30;;
76852;SDS011;65825;52.232;10.566;2023-12-14T03:15:50;9.67;;;5.03;;
76852;SDS011;65825;52.232;10.566;2023-12-14T03:18:16;6.10;;;3.63;;
76852;SDS011;65825;52.232;10.566;2023-12-14T03:20:41;8.30;;;4.53;;
76852;SDS011;65825;52.232;10.566;2023-12-14T03:23:06;9.60;;;4.97;;
76852;SDS011;65825;52.232;10.566;2023-12-14T03:25:31;11.17;;;4.80;;
76852;SDS011;65825;52.232;10.566;2023-12-14T03:27:57;10.97;;;4.50;;
76852;SDS011;65825;52.232;10.566;2023-12-14T03:30:22;9.13;;;4.80;;
76852;SDS011;65825;52.232;10.566;2023-12-14T03:32:47;7.47;;;4.17;;
76852;SDS011;65825;52.232;10.566;2023-12-14T03:35:12;10.70;;;5.23;;
76852;SDS011;65825;52.232;10.566;2023-12-14T03:37:38;7.17;;;4.20;;
76852;SDS011;65825;52.232;10.566;2023-12-14T03:40:03;7.83;;;4.23;;
76852;SDS011;65825;52.232;10.566;2023-12-14T03:42:29;5.15;;;3.72;;
76852;SDS011;65825;52.232;10.566;2023-12-14T03:44:54;6.90;;;3.87;;
76852;SDS011;65825;52.232;10.566;2023-12-14T03:47:19;5.50;;;3.07;;
76852;SDS011;65825;52.232;10.566;2023-12-14T03:49:44;6.97;;;3.60;;
76852;SDS011;65825;52.232;10.566;2023-12-14T03:52:10;5.35;;;3.35;;
76852;SDS011;65825;52.232;10.566;2023-12-14T03:54:35;5.63;;;2.73;;
76852;SDS011;65825;52.232;10.566;2023-12-14T03:57:00;6.20;;;3.58;;
76852;SDS011;65825;52.232;10.566;2023-12-14T03:59:26;5.57;;;3.27;;
76852;SDS011;65825;52.232;10.566;2023-12-14T04:01:51;5.40;;;3.23;;
76852;SDS011;65825;52.232;10.566;2023-12-14T04:04:16;3.73;;;2.57;;
76852;SDS011;65825;52.232;10.566;2023-12-14T04:06:41;4.17;;;2.70;;
76852;SDS011;65825;52.232;10.566;2023-12-14T04:09:07;2.87;;;1.87;;
76852;SDS011;65825;52.232;10.566;2023-12-14T04:11:32;4.17;;;2.40;;
76852;SDS011;65825;52.232;10.566;2023-12-14T04:13:58;4.80;;;2.40;;
76852;SDS011;65825;52.232;10.566;2023-12-14T04:16:23;4.28;;;2.70;;
76852;SDS011;65825;52.232;10.566;2023-12-14T04:18:49;4.33;;;2.63;;
76852;SDS011;65825;52.232;10.566;2023-12-14T04:21:14;4.03;;;2.63;;
76852;SDS011;65825;52.232;10.566;2023-12-14T04:23:39;4.80;;;2.73;;
76852;SDS011;65825;52.232;10.566;2023-12-14T04:26:05;4.73;;;3.10;;
76852;SDS011;65825;52.232;10.566;2023-12-14T04:28:30;4.28;;;2.90;;
76852;SDS011;65825;52.232;10.566;2023-12-14T04:30:55;7.17;;;3.63;;
76852;SDS011;65825;52.232;10.566;2023-12-14T04:33:20;5.30;;;2.90;;
76852;SDS011;65825;52.232;10.566;2023-12-14T04:35:46;4.90;;;3.00;;
76852;SDS011;65825;52.232;10.566;2023-12-14T04:38:11;5.83;;;3.20;;
76852;SDS011;65825;52.232;10.566;2023-12-14T04:40:36;6.43;;;3.90;;
76852;SDS011;65825;52.232;10.566;2023-12-14T04:43:02;5.60;;;3.07;;
76852;SDS011;65825;52.232;10.566;2023-12-14T04:45:27;5.80;;;3.47;;
76852;SDS011;65825;52.232;10.566;2023-12-14T04:47:52;8.33;;;3.70;;
76852;SDS011;65825;52.232;10.566;2023-12-14T04:50:18;4.70;;;3.17;;
76852;SDS011;65825;52.232;10.566;2023-12-14T04:52:43;6.37;;;3.57;;
76852;SDS011;65825;52.232;10.566;2023-12-14T04:55:08;6.77;;;3.27;;
76852;SDS011;65825;52.232;10.566;2023-12-14T04:57:34;5.10;;;3.40;;
76852;SDS011;65825;52.232;10.566;2023-12-14T05:00:00;6.45;;;3.78;;
76852;SDS011;65825;52.232;10.566;2023-12-14T05:02:25;5.07;;;3.50;;
76852;SDS011;65825;52.232;10.566;2023-12-14T05:04:50;7.30;;;3.80;;
76852;SDS011;65825;52.232;10.566;2023-12-14T05:07:15;6.27;;;3.70;;
76852;SDS011;65825;52.232;10.566;2023-12-14T05:09:41;6.87;;;3.80;;
76852;SDS011;65825;52.232;10.566;2023-12-14T05:12:06;4.77;;;3.30;;
76852;SDS011;65825;52.232;10.566;2023-12-14T05:14:32;5.13;;;3.20;;
76852;SDS011;65825;52.232;10.566;2023-12-14T05:16:57;6.05;;;2.83;;
76852;SDS011;65825;52.232;10.566;2023-12-14T05:19:22;5.40;;;2.83;;
76852;SDS011;65825;52.232;10.566;2023-12-14T05:21:48;5.07;;;3.22;;
76852;SDS011;65825;52.232;10.566;2023-12-14T05:24:13;6.23;;;2.50;;
76852;SDS011;65825;52.232;10.566;2023-12-14T05:26:38;5.00;;;2.43;;
76852;SDS011;65825;52.232;10.566;2023-12-14T05:29:04;3.33;;;2.37;;
76852;SDS011;65825;52.232;10.566;2023-12-14T05:31:29;3.40;;;2.27;;
76852;SDS011;65825;52.232;10.566;2023-12-14T05:33:54;5.53;;;2.30;;
76852;SDS011;65825;52.232;10.566;2023-12-14T05:36:19;4.83;;;2.90;;
76852;SDS011;65825;52.232;10.566;2023-12-14T05:38:44;4.23;;;2.70;;
76852;SDS011;65825;52.232;10.566;2023-12-14T05:41:10;4.70;;;2.77;;
76852;SDS011;65825;52.232;10.566;2023-12-14T05:43:35;5.20;;;3.03;;
76852;SDS011;65825;52.232;10.566;2023-12-14T05:46:01;4.85;;;3.05;;
76852;SDS011;65825;52.232;10.566;2023-12-14T05:48:27;4.75;;;3.05;;
76852;SDS011;65825;52.232;10.566;2023-12-14T05:50:53;6.55;;;2.95;;
76852;SDS011;65825;52.232;10.566;2023-12-14T05:53:18;5.47;;;2.88;;
76852;SDS011;65825;52.232;10.566;2023-12-14T05:55:44;6.80;;;3.50;;
76852;SDS011;65825;52.232;10.566;2023-12-14T05:58:09;7.05;;;4.07;;
76852;SDS011;65825;52.232;10.566;2023-12-14T06:00:35;7.43;;;3.90;;
76852;SDS011;65825;52.232;10.566;2023-12-14T06:03:01;8.50;;;4.70;;
76852;SDS011;65825;52.232;10.566;2023-12-14T06:05:27;8.55;;;5.13;;
76852;SDS011;65825;52.232;10.566;2023-12-14T06:07:52;7.10;;;4.37;;
76852;SDS011;65825;52.232;10.566;2023-12-14T06:10:17;7.77;;;4.63;;
76852;SDS011;65825;52.232;10.566;2023-12-14T06:12:43;8.35;;;4.95;;
76852;SDS011;65825;52.232;10.566;2023-12-14T06:15:08;9.27;;;4.80;;
76852;SDS011;65825;52.232;10.566;2023-12-14T06:17:33;8.85;;;4.85;;
76852;SDS011;65825;52.232;10.566;2023-12-14T06:19:59;8.47;;;4.93;;
76852;SDS011;65825;52.232;10.566;2023-12-14T06:22:26;10.23;;;5.63;;
76852;SDS011;65825;52.232;10.566;2023-12-14T06:24:51;9.10;;;5.50;;
76852;SDS011;65825;52.232;10.566;2023-12-14T06:27:17;9.02;;;4.68;;
76852;SDS011;65825;52.232;10.566;2023-12-14T06:29:42;9.57;;;5.23;;
76852;SDS011;65825;52.232;10.566;2023-12-14T06:32:07;7.80;;;4.60;;
76852;SDS011;65825;52.232;10.566;2023-12-14T06:34:32;9.93;;;5.40;;
76852;SDS011;65825;52.232;10.566;2023-12-14T06:36:58;9.60;;;4.73;;
76852;SDS011;65825;52.232;10.566;2023-12-14T06:39:25;9.50;;;5.15;;
76852;SDS011;65825;52.232;10.566;2023-12-14T06:41:51;9.50;;;5.07;;
76852;SDS011;65825;52.232;10.566;2023-12-14T06:44:17;9.38;;;5.20;;
76852;SDS011;65825;52.232;10.566;2023-12-14T06:46:43;8.17;;;4.83;;
76852;SDS011;65825;52.232;10.566;2023-12-14T06:49:08;10.53;;;5.27;;
76852;SDS011;65825;52.232;10.566;2023-12-14T06:51:33;8.57;;;5.23;;
76852;SDS011;65825;52.232;10.566;2023-12-14T06:53:58;10.90;;;6.30;;
76852;SDS011;65825;52.232;10.566;2023-12-14T06:56:24;9.53;;;5.03;;
76852;SDS011;65825;52.232;10.566;2023-12-14T06:58:49;9.50;;;5.40;;
76852;SDS011;65825;52.232;10.566;2023-12-14T07:01:15;9.33;;;5.00;;
76852;SDS011;65825;52.232;10.566;2023-12-14T07:03:41;8.55;;;4.63;;
76852;SDS011;65825;52.232;10.566;2023-12-14T07:06:11;6.70;;;4.05;;
76852;SDS011;65825;52.232;10.566;2023-12-14T07:08:37;6.93;;;4.35;;
76852;SDS011;65825;52.232;10.566;2023-12-14T07:11:03;7.40;;;4.10;;
76852;SDS011;65825;52.232;10.566;2023-12-14T07:13:28;7.63;;;4.45;;
76852;SDS011;65825;52.232;10.566;2023-12-14T07:15:54;6.77;;;4.37;;
76852;SDS011;65825;52.232;10.566;2023-12-14T07:18:19;7.70;;;4.10;;
76852;SDS011;65825;52.232;10.566;2023-12-14T07:20:44;7.10;;;4.00;;
76852;SDS011;65825;52.232;10.566;2023-12-14T07:23:09;7.70;;;4.50;;
76852;SDS011;65825;52.232;10.566;2023-12-14T07:25:35;7.87;;;4.93;;
76852;SDS011;65825;52.232;10.566;2023-12-14T07:28:00;8.43;;;5.43;;
76852;SDS011;65825;52.232;10.566;2023-12-14T07:30:25;8.40;;;4.70;;
76852;SDS011;65825;52.232;10.566;2023-12-14T07:32:50;7.33;;;4.53;;
76852;SDS011;65825;52.232;10.566;2023-12-14T07:35:16;8.67;;;4.77;;
76852;SDS011;65825;52.232;10.566;2023-12-14T07:37:41;10.27;;;5.17;;
76852;SDS011;65825;52.232;10.566;2023-12-14T07:40:06;8.73;;;4.63;;
76852;SDS011;65825;52.232;10.566;2023-12-14T07:42:32;7.50;;;4.47;;
76852;SDS011;65825;52.232;10.566;2023-12-14T07:44:57;8.17;;;4.63;;
76852;SDS011;65825;52.232;10.566;2023-12-14T07:47:23;7.87;;;4.77;;
76852;SDS011;65825;52.232;10.566;2023-12-14T07:49:48;6.80;;;4.20;;
76852;SDS011;65825;52.232;10.566;2023-12-14T07:52:13;7.73;;;4.57;;
76852;SDS011;65825;52.232;10.566;2023-12-14T07:54:39;8.20;;;4.63;;
76852;SDS011;65825;52.232;10.566;2023-12-14T07:57:04;7.97;;;4.82;;
76852;SDS011;65825;52.232;10.566;2023-12-14T07:59:30;8.27;;;4.67;;
76852;SDS011;65825;52.232;10.566;2023-12-14T08:01:55;8.97;;;5.13;;
76852;SDS011;65825;52.232;10.566;2023-12-14T08:04:20;11.07;;;4.87;;
76852;SDS011;65825;52.232;10.566;2023-12-14T08:06:45;7.20;;;4.10;;
76852;SDS011;65825;52.232;10.566;2023-12-14T08:09:11;7.33;;;4.60;;
76852;SDS011;65825;52.232;10.566;2023-12-14T08:11:36;10.10;;;4.77;;
76852;SDS011;65825;52.232;10.566;2023-12-14T08:14:01;10.53;;;5.73;;
76852;SDS011;65825;52.232;10.566;2023-12-14T08:16:27;11.23;;;5.57;;
76852;SDS011;65825;52.232;10.566;2023-12-14T08:18:53;7.93;;;4.83;;
76852;SDS011;65825;52.232;10.566;2023-12-14T08:21:18;9.00;;;4.95;;
76852;SDS011;65825;52.232;10.566;2023-12-14T08:23:43;8.43;;;5.07;;
76852;SDS011;65825;52.232;10.566;2023-12-14T08:26:09;31.60;;;11.48;;
76852;SDS011;65825;52.232;10.566;2023-12-14T08:28:36;25.90;;;10.93;;
76852;SDS011;65825;52.232;10.566;2023-12-14T08:31:01;10.70;;;5.57;;
76852;SDS011;65825;52.232;10.566;2023-12-14T08:33:28;10.90;;;5.22;;
76852;SDS011;65825;52.232;10.566;2023-12-14T08:35:54;9.05;;;4.70;;
76852;SDS011;65825;52.232;10.566;2023-12-14T08:38:19;8.18;;;4.68;;
76852;SDS011;65825;52.232;10.566;2023-12-14T08:40:45;8.13;;;4.30;;
76852;SDS011;65825;52.232;10.566;2023-12-14T08:43:10;7.47;;;4.47;;
76852;SDS011;65825;52.232;10.566;2023-12-14T08:45:35;7.20;;;3.93;;
76852;SDS011;65825;52.232;10.566;2023-12-14T08:48:00;7.90;;;4.17;;
76852;SDS011;65825;52.232;10.566;2023-12-14T08:50:26;6.83;;;3.57;;
76852;SDS011;65825;52.232;10.566;2023-12-14T08:52:51;5.40;;;3.57;;
76852;SDS011;65825;52.232;10.566;2023-12-14T08:55:17;6.85;;;4.03;;
76852;SDS011;65825;52.232;10.566;2023-12-14T08:57:42;5.32;;;3.65;;
76852;SDS011;65825;52.232;10.566;2023-12-14T09:00:08;6.47;;;3.73;;
76852;SDS011;65825;52.232;10.566;2023-12-14T09:02:34;5.78;;;3.72;;
76852;SDS011;65825;52.232;10.566;2023-12-14T09:05:00;8.52;;;4.50;;
76852;SDS011;65825;52.232;10.566;2023-12-14T09:07:25;7.13;;;4.30;;
76852;SDS011;65825;52.232;10.566;2023-12-14T09:09:50;8.20;;;4.37;;
76852;SDS011;65825;52.232;10.566;2023-12-14T09:12:15;6.73;;;3.80;;
76852;SDS011;65825;52.232;10.566;2023-12-14T09:14:41;8.17;;;4.57;;
76852;SDS011;65825;52.232;10.566;2023-12-14T09:17:06;6.20;;;3.88;;
76852;SDS011;65825;52.232;10.566;2023-12-14T09:19:32;5.85;;;4.18;;
76852;SDS011;65825;52.232;10.566;2023-12-14T09:21:57;5.90;;;3.42;;
76852;SDS011;65825;52.232;10.566;2023-12-14T09:24:23;6.40;;;3.53;;
76852;SDS011;65825;52.232;10.566;2023-12-14T09:26:48;5.93;;;3.60;;
76852;SDS011;65825;52.232;10.566;2023-12-14T09:29:13;6.87;;;3.40;;
76852;SDS011;65825;52.232;10.566;2023-12-14T09:31:43;6.50;;;3.53;;
76852;SDS011;65825;52.232;10.566;2023-12-14T09:34:09;5.82;;;3.58;;
76852;SDS011;65825;52.232;10.566;2023-12-14T09:36:35;5.57;;;3.97;;
76852;SDS011;65825;52.232;10.566;2023-12-14T09:39:01;7.65;;;4.45;;
76852;SDS011;65825;52.232;10.566;2023-12-14T09:41:26;7.10;;;3.85;;
76852;SDS011;65825;52.232;10.566;2023-12-14T09:43:51;6.80;;;4.03;;
76852;SDS011;65825;52.232;10.566;2023-12-14T09:46:18;6.65;;;3.20;;
76852;SDS011;65825;52.232;10.566;2023-12-14T09:48:45;8.82;;;4.32;;
76852;SDS011;65825;52.232;10.566;2023-12-14T09:51:11;6.95;;;3.92;;
76852;SDS011;65825;52.232;10.566;2023-12-14T09:53:37;6.63;;;4.22;;
76852;SDS011;65825;52.232;10.566;2023-12-14T09:56:02;5.40;;;3.10;;
76852;SDS011;65825;52.232;10.566;2023-12-14T09:58:31;5.68;;;3.13;;
76852;SDS011;65825;52.232;10.566;2023-12-14T10:00:57;4.50;;;2.67;;
76852;SDS011;65825;52.232;10.566;2023-12-14T10:03:25;5.95;;;3.17;;
76852;SDS011;65825;52.232;10.566;2023-12-14T10:05:53;5.55;;;2.72;;
76852;SDS011;65825;52.232;10.566;2023-12-14T10:08:19;6.65;;;3.78;;
76852;SDS011;65825;52.232;10.566;2023-12-14T10:10:46;6.13;;;3.37;;
76852;SDS011;65825;52.232;10.566;2023-12-14T10:13:13;5.63;;;3.20;;
76852;SDS011;65825;52.232;10.566;2023-12-14T10:18:07;6.25;;;3.30;;
76852;SDS011;65825;52.232;10.566;2023-12-14T10:20:32;5.05;;;2.88;;
76852;SDS011;65825;52.232;10.566;2023-12-14T10:22:58;5.20;;;2.50;;
76852;SDS011;65825;52.232;10.566;2023-12-14T10:25:23;4.90;;;2.63;;
76852;SDS011;65825;52.232;10.566;2023-12-14T10:27:51;6.93;;;3.83;;
76852;SDS011;65825;52.232;10.566;2023-12-14T10:30:17;10.13;;;4.95;;
76852;SDS011;65825;52.232;10.566;2023-12-14T10:32:44;6.65;;;3.45;;
76852;SDS011;65825;52.232;10.566;2023-12-14T10:35:12;4.78;;;2.88;;
76852;SDS011;65825;52.232;10.566;2023-12-14T10:37:41;5.50;;;2.60;;
76852;SDS011;65825;52.232;10.566;2023-12-14T10:40:07;7.85;;;4.03;;
76852;SDS011;65825;52.232;10.566;2023-12-14T10:42:35;7.22;;;3.55;;
76852;SDS011;65825;52.232;10.566;2023-12-14T10:45:02;6.82;;;3.38;;
76852;SDS011;65825;52.232;10.566;2023-12-14T10:49:54;4.30;;;2.67;;
76852;SDS011;65825;52.232;10.566;2023-12-14T10:54:47;6.28;;;3.17;;
76852;SDS011;65825;52.232;10.566;2023-12-14T10:57:17;4.13;;;2.65;;
76852;SDS011;65825;52.232;10.566;2023-12-14T10:59:42;6.45;;;3.20;;
76852;SDS011;65825;52.232;10.566;2023-12-14T11:02:08;7.87;;;3.53;;
76852;SDS011;65825;52.232;10.566;2023-12-14T11:04:54;6.20;;;3.15;;
76852;SDS011;65825;52.232;10.566;2023-12-14T11:10:11;5.60;;;3.42;;
76852;SDS011;65825;52.232;10.566;2023-12-14T11:12:36;6.03;;;3.10;;
76852;SDS011;65825;52.232;10.566;2023-12-14T11:15:02;6.47;;;3.38;;
76852;SDS011;65825;52.232;10.566;2023-12-14T11:19:55;6.33;;;3.33;;
76852;SDS011;65825;52.232;10.566;2023-12-14T11:22:24;10.70;;;3.25;;
76852;SDS011;65825;52.232;10.566;2023-12-14T11:24:54;10.18;;;3.60;;
76852;SDS011;65825;52.232;10.566;2023-12-14T11:27:20;8.98;;;3.97;;
76852;SDS011;65825;52.232;10.566;2023-12-14T11:29:52;8.77;;;3.75;;
76852;SDS011;65825;52.232;10.566;2023-12-14T11:32:18;8.43;;;3.75;;
76852;SDS011;65825;52.232;10.566;2023-12-14T11:34:45;8.45;;;3.90;;
76852;SDS011;65825;52.232;10.566;2023-12-14T11:37:12;8.77;;;4.43;;
76852;SDS011;65825;52.232;10.566;2023-12-14T11:39:37;9.10;;;4.30;;
76852;SDS011;65825;52.232;10.566;2023-12-14T11:42:04;7.15;;;3.53;;
76852;SDS011;65825;52.232;10.566;2023-12-14T11:44:33;9.70;;;4.47;;
76852;SDS011;65825;52.232;10.566;2023-12-14T11:46:58;8.98;;;4.25;;
76852;SDS011;65825;52.232;10.566;2023-12-14T11:49:27;7.47;;;4.27;;
76852;SDS011;65825;52.232;10.566;2023-12-14T11:51:53;9.52;;;4.75;;
76852;SDS011;65825;52.232;10.566;2023-12-14T11:56:48;8.98;;;4.05;;
76852;SDS011;65825;52.232;10.566;2023-12-14T11:59:15;11.20;;;5.03;;
76852;SDS011;65825;52.232;10.566;2023-12-14T12:04:27;9.68;;;4.05;;
76852;SDS011;65825;52.232;10.566;2023-12-14T12:07:00;11.82;;;5.22;;
76852;SDS011;65825;52.232;10.566;2023-12-14T12:09:36;10.15;;;4.78;;
76852;SDS011;65825;52.232;10.566;2023-12-14T12:12:06;9.82;;;4.95;;
76852;SDS011;65825;52.232;10.566;2023-12-14T12:14:32;8.57;;;4.13;;
76852;SDS011;65825;52.232;10.566;2023-12-14T12:16:57;9.47;;;4.53;;
76852;SDS011;65825;52.232;10.566;2023-12-14T12:19:22;8.00;;;5.10;;
76852;SDS011;65825;52.232;10.566;2023-12-14T12:21:47;10.63;;;5.60;;
76852;SDS011;65825;52.232;10.566;2023-12-14T12:24:13;11.53;;;5.23;;
76852;SDS011;65825;52.232;10.566;2023-12-14T12:26:38;10.00;;;4.67;;
76852;SDS011;65825;52.232;10.566;2023-12-14T12:29:03;15.40;;;6.07;;
76852;SDS011;65825;52.232;10.566;2023-12-14T12:33:56;12.57;;;5.40;;
76852;SDS011;65825;52.232;10.566;2023-12-14T12:36:21;8.80;;;4.63;;
76852;SDS011;65825;52.232;10.566;2023-12-14T12:38:46;8.90;;;4.50;;
76852;SDS011;65825;52.232;10.566;2023-12-14T12:41:11;11.23;;;5.23;;
76852;SDS011;65825;52.232;10.566;2023-12-14T12:43:37;10.93;;;5.07;;
76852;SDS011;65825;52.232;10.566;2023-12-14T12:46:02;8.87;;;3.87;;
76852;SDS011;65825;52.232;10.566;2023-12-14T12:48:27;9.13;;;4.55;;
76852;SDS011;65825;52.232;10.566;2023-12-14T12:50:53;6.93;;;3.90;;
76852;SDS011;65825;52.232;10.566;2023-12-14T12:53:18;9.83;;;4.73;;
76852;SDS011;65825;52.232;10.566;2023-12-14T12:55:43;10.90;;;4.83;;
76852;SDS011;65825;52.232;10.566;2023-12-14T12:58:09;10.68;;;4.68;;
76852;SDS011;65825;52.232;10.566;2023-12-14T13:00:34;7.10;;;4.03;;
76852;SDS011;65825;52.232;10.566;2023-12-14T13:03:01;10.00;;;4.10;;
76852;SDS011;65825;52.232;10.566;2023-12-14T13:05:27;8.65;;;4.82;;
76852;SDS011;65825;52.232;10.566;2023-12-14T13:07:53;8.18;;;3.70;;
76852;SDS011;65825;52.232;10.566;2023-12-14T13:10:19;7.65;;;3.83;;
76852;SDS011;65825;52.232;10.566;2023-12-14T13:12:47;8.73;;;3.60;;
76852;SDS011;65825;52.232;10.566;2023-12-14T13:15:13;8.32;;;4.38;;
76852;SDS011;65825;52.232;10.566;2023-12-14T13:17:38;9.85;;;4.00;;
76852;SDS011;65825;52.232;10.566;2023-12-14T13:20:03;8.73;;;3.97;;
76852;SDS011;65825;52.232;10.566;2023-12-14T13:22:31;8.40;;;3.90;;
76852;SDS011;65825;52.232;10.566;2023-12-14T13:24:57;7.67;;;3.90;;
76852;SDS011;65825;52.232;10.566;2023-12-14T13:27:22;9.23;;;4.03;;
76852;SDS011;65825;52.232;10.566;2023-12-14T13:29:49;9.57;;;4.05;;
76852;SDS011;65825;52.232;10.566;2023-12-14T13:32:14;7.87;;;4.70;;
76852;SDS011;65825;52.232;10.566;2023-12-14T13:34:39;9.37;;;4.07;;
76852;SDS011;65825;52.232;10.566;2023-12-14T13:37:05;7.93;;;4.63;;
76852;SDS011;65825;52.232;10.566;2023-12-14T13:39:30;10.90;;;4.47;;
76852;SDS011;65825;52.232;10.566;2023-12-14T13:41:58;8.52;;;3.47;;
76852;SDS011;65825;52.232;10.566;2023-12-14T13:44:24;8.02;;;3.53;;
76852;SDS011;65825;52.232;10.566;2023-12-14T13:46:49;5.70;;;3.67;;
76852;SDS011;65825;52.232;10.566;2023-12-14T13:49:14;7.43;;;4.00;;
76852;SDS011;65825;52.232;10.566;2023-12-14T13:51:40;7.60;;;4.07;;
76852;SDS011;65825;52.232;10.566;2023-12-14T13:54:05;7.17;;;3.80;;
76852;SDS011;65825;52.232;10.566;2023-12-14T13:56:30;10.67;;;3.83;;
76852;SDS011;65825;52.232;10.566;2023-12-14T13:58:55;7.60;;;3.60;;
76852;SDS011;65825;52.232;10.566;2023-12-14T14:01:21;7.90;;;3.63;;
76852;SDS011;65825;52.232;10.566;2023-12-14T14:03:46;8.63;;;3.53;;
76852;SDS011;65825;52.232;10.566;2023-12-14T14:06:12;9.83;;;4.13;;
76852;SDS011;65825;52.232;10.566;2023-12-14T14:08:38;6.45;;;3.55;;
76852;SDS011;65825;52.232;10.566;2023-12-14T14:11:03;7.07;;;3.53;;
76852;SDS011;65825;52.232;10.566;2023-12-14T14:13:29;8.50;;;3.75;;
76852;SDS011;65825;52.232;10.566;2023-12-14T14:15:54;9.32;;;3.63;;
76852;SDS011;65825;52.232;10.566;2023-12-14T14:18:20;6.60;;;3.45;;
76852;SDS011;65825;52.232;10.566;2023-12-14T14:20:46;5.35;;;2.72;;
76852;SDS011;65825;52.232;10.566;2023-12-14T14:23:11;6.87;;;3.50;;
76852;SDS011;65825;52.232;10.566;2023-12-14T14:25:36;7.35;;;3.92;;
76852;SDS011;65825;52.232;10.566;2023-12-14T14:28:02;6.83;;;3.63;;
76852;SDS011;65825;52.232;10.566;2023-12-14T14:30:27;7.90;;;3.58;;
76852;SDS011;65825;52.232;10.566;2023-12-14T14:32:53;8.70;;;4.07;;
76852;SDS011;65825;52.232;10.566;2023-12-14T14:35:18;6.70;;;3.50;;
76852;SDS011;65825;52.232;10.566;2023-12-14T14:37:43;8.18;;;3.85;;
76852;SDS011;65825;52.232;10.566;2023-12-14T14:40:11;7.75;;;3.72;;
76852;SDS011;65825;52.232;10.566;2023-12-14T14:42:38;6.57;;;3.10;;